Time,TemperatureF,DewpointF,PressureIn,WindDirection,WindDirectionDegrees,WindSpeedMPH,WindSpeedGustMPH,Humidity,HourlyPrecipIn,Conditions,Clouds,dailyrainin,SolarRadiationWatts/m^2,SoftwareType,DateUTC
2013-01-10 00:02:00,33.5,26.1,30.33,SSW,200,3.0,0.0,74,0.00,,,0.00,0,WeatherTracker,2013-01-10 06:02:00,
2013-01-10 00:07:00,33.7,26.3,30.33,SSW,199,5.0,0.0,74,0.00,,,0.00,0,WeatherTracker,2013-01-10 06:07:00,
2013-01-10 00:12:00,33.7,26.3,30.33,SSW,200,5.0,0.0,74,0.00,,,0.00,0,WeatherTracker,2013-01-10 06:12:00,
2013-01-10 00:17:00,33.7,26.3,30.33,SSW,199,7.0,0.0,74,0.00,,,0.00,0,WeatherTracker,2013-01-10 06:17:00,
2013-01-10 00:22:00,33.7,26.3,30.32,SSW,211,2.0,0.0,74,0.00,,,0.00,0,WeatherTracker,2013-01-10 06:22:00,
2013-01-10 00:27:00,33.5,26.1,30.32,SSW,211,3.0,0.0,74,0.00,,,0.00,0,WeatherTracker,2013-01-10 06:27:00,
2013-01-10 00:32:00,33.3,26.2,30.32,SSW,211,2.0,0.0,75,0.00,,,0.00,0,WeatherTracker,2013-01-10 06:32:00,
2013-01-10 00:37:00,33.0,26.0,30.32,SSW,210,4.0,0.0,75,0.00,,,0.00,0,WeatherTracker,2013-01-10 06:37:00,
2013-01-10 00:42:00,32.7,25.7,30.32,SSW,211,2.0,0.0,75,0.00,,,0.00,0,WeatherTracker,2013-01-10 06:42:00,
2013-01-10 00:47:00,32.4,25.7,30.31,SSW,211,0.0,0.0,76,0.00,,,0.00,0,WeatherTracker,2013-01-10 06:47:00,
2013-01-10 00:52:00,32.1,25.7,30.31,SSW,211,1.0,0.0,77,0.00,,,0.00,0,WeatherTracker,2013-01-10 06:52:00,
2013-01-10 00:57:00,31.9,25.5,30.32,SSW,211,1.0,0.0,77,0.00,,,0.00,0,WeatherTracker,2013-01-10 06:57:00,
2013-01-10 01:02:00,31.8,25.4,30.31,SSW,211,2.0,0.0,77,0.00,,,0.00,0,WeatherTracker,2013-01-10 07:02:00,
2013-01-10 01:07:00,32.3,26.2,30.31,SSW,202,4.0,0.0,78,0.00,,,0.00,0,WeatherTracker,2013-01-10 07:07:00,
2013-01-10 01:12:00,32.8,26.7,30.31,SSW,201,1.0,0.0,78,0.00,,,0.00,0,WeatherTracker,2013-01-10 07:12:00,
2013-01-10 01:17:00,33.2,26.8,30.31,SSW,200,4.0,0.0,77,0.00,,,0.00,0,WeatherTracker,2013-01-10 07:17:00,
2013-01-10 01:22:00,33.4,27.0,30.31,SSW,200,3.0,0.0,77,0.00,,,0.00,0,WeatherTracker,2013-01-10 07:22:00,
2013-01-10 01:27:00,33.5,27.1,30.30,SSW,200,5.0,0.0,77,0.00,,,0.00,0,WeatherTracker,2013-01-10 07:27:00,
2013-01-10 01:33:00,33.7,27.3,30.30,SSW,200,4.0,0.0,77,0.00,,,0.00,0,WeatherTracker,2013-01-10 07:33:00,
2013-01-10 01:38:00,33.5,27.1,30.30,SSW,200,4.0,0.0,77,0.00,,,0.00,0,WeatherTracker,2013-01-10 07:38:00,
2013-01-10 01:43:00,33.4,27.0,30.30,SSW,206,4.0,0.0,77,0.00,,,0.00,0,WeatherTracker,2013-01-10 07:43:00,
2013-01-10 01:48:00,33.3,26.9,30.30,SSW,209,6.0,0.0,77,0.00,,,0.00,0,WeatherTracker,2013-01-10 07:48:00,
2013-01-10 01:53:00,33.4,27.0,30.30,SSW,205,7.0,0.0,77,0.00,,,0.00,0,WeatherTracker,2013-01-10 07:53:00,
2013-01-10 01:58:00,33.5,27.1,30.30,SSW,207,2.0,0.0,77,0.00,,,0.00,0,WeatherTracker,2013-01-10 07:58:00,
2013-01-10 02:03:00,33.6,27.2,30.30,SSW,199,5.0,0.0,77,0.00,,,0.00,0,WeatherTracker,2013-01-10 08:03:00,
2013-01-10 02:08:00,33.5,27.1,30.30,SSW,202,3.0,0.0,77,0.00,,,0.00,0,WeatherTracker,2013-01-10 08:08:00,
2013-01-10 02:13:00,33.5,27.1,30.30,SSW,207,5.0,0.0,77,0.00,,,0.00,0,WeatherTracker,2013-01-10 08:13:00,
2013-01-10 02:18:00,33.6,27.2,30.30,SSW,213,5.0,0.0,77,0.00,,,0.00,0,WeatherTracker,2013-01-10 08:18:00,
2013-01-10 02:23:00,33.5,27.1,30.29,SSW,208,4.0,0.0,77,0.00,,,0.00,0,WeatherTracker,2013-01-10 08:23:00,
2013-01-10 02:28:00,33.2,26.8,30.29,SSW,209,3.0,0.0,77,0.00,,,0.00,0,WeatherTracker,2013-01-10 08:28:00,
2013-01-10 02:33:00,32.7,26.3,30.29,SSW,209,1.0,0.0,77,0.00,,,0.00,0,WeatherTracker,2013-01-10 08:33:00,
2013-01-10 02:38:00,32.2,26.1,30.29,SSW,210,2.0,0.0,78,0.00,,,0.00,0,WeatherTracker,2013-01-10 08:38:00,
2013-01-10 02:43:00,31.8,25.7,30.29,SSW,210,0.0,0.0,78,0.00,,,0.00,0,WeatherTracker,2013-01-10 08:43:00,
2013-01-10 02:48:00,31.7,25.9,30.28,SSW,210,4.0,0.0,79,0.00,,,0.00,0,WeatherTracker,2013-01-10 08:48:00,
2013-01-10 02:53:00,31.8,26.0,30.28,SSW,209,3.0,0.0,79,0.00,,,0.00,0,WeatherTracker,2013-01-10 08:53:00,
2013-01-10 02:58:00,31.9,26.1,30.28,SSW,209,3.0,0.0,79,0.00,,,0.00,0,WeatherTracker,2013-01-10 08:58:00,
2013-01-10 03:03:00,31.8,26.0,30.27,SSW,210,2.0,0.0,79,0.00,,,0.00,0,WeatherTracker,2013-01-10 09:03:00,
2013-01-10 03:08:00,31.6,25.8,30.27,SSW,210,1.0,0.0,79,0.00,,,0.00,0,WeatherTracker,2013-01-10 09:08:00,
2013-01-10 03:13:00,31.4,26.0,30.27,SSW,210,0.0,0.0,80,0.00,,,0.00,0,WeatherTracker,2013-01-10 09:13:00,
2013-01-10 03:19:00,31.2,25.8,30.27,SSW,210,0.0,0.0,80,0.00,,,0.00,0,WeatherTracker,2013-01-10 09:19:00,
2013-01-10 03:24:00,31.1,25.7,30.27,SSW,209,0.0,0.0,80,0.00,,,0.00,0,WeatherTracker,2013-01-10 09:24:00,
2013-01-10 03:29:00,30.9,25.5,30.26,SSW,209,0.0,0.0,80,0.00,,,0.00,0,WeatherTracker,2013-01-10 09:29:00,
2013-01-10 03:34:00,30.8,25.7,30.26,SSW,209,0.0,0.0,81,0.00,,,0.00,0,WeatherTracker,2013-01-10 09:34:00,
2013-01-10 03:39:00,30.9,25.8,30.26,SSW,209,0.0,0.0,81,0.00,,,0.00,0,WeatherTracker,2013-01-10 09:39:00,
2013-01-10 03:44:00,30.6,25.5,30.25,SSW,209,0.0,0.0,81,0.00,,,0.00,0,WeatherTracker,2013-01-10 09:44:00,
2013-01-10 03:49:00,30.3,25.2,30.25,SSW,209,0.0,0.0,81,0.00,,,0.00,0,WeatherTracker,2013-01-10 09:49:00,
2013-01-10 03:54:00,30.1,25.0,30.25,SSW,209,0.0,0.0,81,0.00,,,0.00,0,WeatherTracker,2013-01-10 09:54:00,
2013-01-10 03:59:00,29.9,24.8,30.25,SSW,209,0.0,0.0,81,0.00,,,0.00,0,WeatherTracker,2013-01-10 09:59:00,
2013-01-10 04:04:00,29.9,25.1,30.24,SSW,209,0.0,0.0,82,0.00,,,0.00,0,WeatherTracker,2013-01-10 10:04:00,
2013-01-10 04:09:00,29.9,25.1,30.24,SSW,209,0.0,0.0,82,0.00,,,0.00,0,WeatherTracker,2013-01-10 10:09:00,
2013-01-10 04:14:00,29.8,25.0,30.24,SSW,209,0.0,0.0,82,0.00,,,0.00,0,WeatherTracker,2013-01-10 10:14:00,
2013-01-10 04:19:00,29.8,25.0,30.24,SSW,209,0.0,0.0,82,0.00,,,0.00,0,WeatherTracker,2013-01-10 10:19:00,
2013-01-10 04:24:00,29.8,25.3,30.24,SSW,209,0.0,0.0,83,0.00,,,0.00,0,WeatherTracker,2013-01-10 10:24:00,
2013-01-10 04:29:00,29.8,25.3,30.23,SSW,209,0.0,0.0,83,0.00,,,0.00,0,WeatherTracker,2013-01-10 10:29:00,
2013-01-10 04:34:00,29.7,25.2,30.23,SSW,209,0.0,0.0,83,0.00,,,0.00,0,WeatherTracker,2013-01-10 10:34:00,
2013-01-10 04:39:00,29.7,25.2,30.22,SSW,209,0.0,0.0,83,0.00,,,0.00,0,WeatherTracker,2013-01-10 10:39:00,
2013-01-10 04:44:00,29.6,25.1,30.22,SSW,209,0.0,0.0,83,0.00,,,0.00,0,WeatherTracker,2013-01-10 10:44:00,
2013-01-10 04:49:00,29.6,25.1,30.21,SSW,209,0.0,0.0,83,0.00,,,0.00,0,WeatherTracker,2013-01-10 10:49:00,
2013-01-10 04:54:00,29.8,25.3,30.20,SSW,209,0.0,0.0,83,0.00,,,0.00,0,WeatherTracker,2013-01-10 10:54:00,
2013-01-10 04:59:00,30.2,26.0,30.20,SSW,209,0.0,0.0,84,0.00,,,0.00,0,WeatherTracker,2013-01-10 10:59:00,
2013-01-10 05:04:00,30.8,26.3,30.19,SSW,209,0.0,0.0,83,0.00,,,0.00,0,WeatherTracker,2013-01-10 11:04:00,
2013-01-10 05:09:00,31.7,27.1,30.19,SSW,209,0.0,0.0,83,0.00,,,0.00,0,WeatherTracker,2013-01-10 11:09:00,
2013-01-10 05:14:00,32.5,27.6,30.18,SSW,209,0.0,0.0,82,0.00,,,0.00,0,WeatherTracker,2013-01-10 11:14:00,
2013-01-10 05:19:00,33.1,27.9,30.17,SSW,209,0.0,0.0,81,0.00,,,0.00,0,WeatherTracker,2013-01-10 11:19:00,
2013-01-10 05:24:00,33.6,28.1,30.17,SSW,209,0.0,0.0,80,0.00,,,0.00,0,WeatherTracker,2013-01-10 11:24:00,
2013-01-10 05:30:00,34.1,28.3,30.17,SSW,209,0.0,0.0,79,0.00,,,0.00,0,WeatherTracker,2013-01-10 11:30:00,
2013-01-10 05:35:00,34.9,28.4,30.16,SSW,203,0.0,0.0,77,0.00,,,0.00,0,WeatherTracker,2013-01-10 11:35:00,
2013-01-10 05:40:00,35.8,28.7,30.16,South,173,5.0,0.0,75,0.00,,,0.00,0,WeatherTracker,2013-01-10 11:40:00,
2013-01-10 05:45:00,36.5,28.7,30.16,South,169,6.0,0.0,73,0.00,,,0.00,0,WeatherTracker,2013-01-10 11:45:00,
2013-01-10 05:50:00,36.8,28.3,30.16,SSE,163,6.0,0.0,71,0.00,,,0.00,0,WeatherTracker,2013-01-10 11:50:00,
2013-01-10 05:55:00,36.8,28.3,30.16,SSE,161,3.0,0.0,71,0.00,,,0.00,0,WeatherTracker,2013-01-10 11:55:00,
2013-01-10 06:00:00,36.8,27.9,30.16,SSE,159,1.0,0.0,70,0.00,,,0.00,0,WeatherTracker,2013-01-10 12:00:00,
2013-01-10 06:05:00,36.8,27.9,30.16,SSE,159,1.0,0.0,70,0.00,,,0.00,0,WeatherTracker,2013-01-10 12:05:00,
2013-01-10 06:10:00,36.9,28.0,30.15,SSE,151,3.0,0.0,70,0.00,,,0.00,0,WeatherTracker,2013-01-10 12:10:00,
2013-01-10 06:15:00,37.0,27.8,30.15,SSE,150,0.0,0.0,69,0.00,,,0.00,0,WeatherTracker,2013-01-10 12:15:00,
2013-01-10 06:20:00,37.1,27.5,30.14,SSE,155,5.0,0.0,68,0.00,,,0.00,0,WeatherTracker,2013-01-10 12:20:00,
2013-01-10 06:25:00,37.3,27.7,30.13,SE,134,7.0,0.0,68,0.00,,,0.00,0,WeatherTracker,2013-01-10 12:25:00,
2013-01-10 06:30:00,37.3,27.7,30.13,SSE,153,5.0,0.0,68,0.00,,,0.00,0,WeatherTracker,2013-01-10 12:30:00,
2013-01-10 06:35:00,37.1,27.5,30.12,SE,140,4.0,0.0,68,0.00,,,0.00,0,WeatherTracker,2013-01-10 12:35:00,
2013-01-10 06:40:00,37.1,27.9,30.12,SE,137,4.0,0.0,69,0.00,,,0.00,0,WeatherTracker,2013-01-10 12:40:00,
2013-01-10 06:46:00,36.8,27.6,30.12,SE,136,1.0,0.0,69,0.00,,,0.00,0,WeatherTracker,2013-01-10 12:46:00,
2013-01-10 06:51:00,36.7,27.5,30.12,SE,134,0.0,0.0,69,0.00,,,0.00,0,WeatherTracker,2013-01-10 12:51:00,
2013-01-10 06:56:00,36.8,27.6,30.12,SE,134,4.0,0.0,69,0.00,,,0.00,0,WeatherTracker,2013-01-10 12:56:00,
2013-01-10 07:01:00,36.7,27.5,30.12,SE,136,3.0,0.0,69,0.00,,,0.00,0,WeatherTracker,2013-01-10 13:01:00,
2013-01-10 07:06:00,36.5,27.7,30.12,SE,136,5.0,0.0,70,0.00,,,0.00,0,WeatherTracker,2013-01-10 13:06:00,
2013-01-10 07:11:00,36.5,27.7,30.12,SE,137,0.0,0.0,70,0.00,,,0.00,0,WeatherTracker,2013-01-10 13:11:00,
2013-01-10 07:16:00,36.5,27.7,30.12,SE,138,3.0,0.0,70,0.00,,,0.00,0,WeatherTracker,2013-01-10 13:16:00,
2013-01-10 07:21:00,36.3,27.5,30.11,SE,138,3.0,0.0,70,0.00,,,0.00,0,WeatherTracker,2013-01-10 13:21:00,
2013-01-10 07:26:00,36.2,27.7,30.11,SE,138,4.0,0.0,71,0.00,,,0.00,0,WeatherTracker,2013-01-10 13:26:00,
2013-01-10 07:31:00,36.0,27.2,30.11,SE,137,4.0,0.0,70,0.00,,,0.00,0,WeatherTracker,2013-01-10 13:31:00,
2013-01-10 07:36:00,35.9,27.4,30.11,SE,137,3.0,0.0,71,0.00,,,0.00,0,WeatherTracker,2013-01-10 13:36:00,
2013-01-10 07:41:00,35.8,27.3,30.11,SE,141,4.0,0.0,71,0.00,,,0.00,0,WeatherTracker,2013-01-10 13:41:00,
2013-01-10 07:46:00,35.7,27.2,30.11,SE,132,5.0,0.0,71,0.00,,,0.00,0,WeatherTracker,2013-01-10 13:46:00,
2013-01-10 07:51:00,35.7,27.2,30.10,SE,132,3.0,0.0,71,0.00,,,0.00,0,WeatherTracker,2013-01-10 13:51:00,
2013-01-10 07:56:00,35.8,27.7,30.11,ESE,123,5.0,0.0,72,0.00,,,0.00,0,WeatherTracker,2013-01-10 13:56:00,
2013-01-10 08:01:00,35.7,27.2,30.10,SE,125,7.0,0.0,71,0.00,,,0.00,0,WeatherTracker,2013-01-10 14:01:00,
2013-01-10 08:06:00,35.7,27.6,30.10,SE,144,4.0,0.0,72,0.00,,,0.00,0,WeatherTracker,2013-01-10 14:06:00,
2013-01-10 08:11:00,35.6,27.1,30.09,SE,140,10.0,0.0,71,0.00,,,0.00,5,WeatherTracker,2013-01-10 14:11:00,
2013-01-10 08:16:00,35.7,27.2,30.08,SE,140,2.0,0.0,71,0.00,,,0.00,9,WeatherTracker,2013-01-10 14:16:00,
2013-01-10 08:21:00,35.6,27.1,30.08,SE,137,0.0,0.0,71,0.00,,,0.00,12,WeatherTracker,2013-01-10 14:21:00,
2013-01-10 08:27:00,35.7,27.2,30.09,SE,130,6.0,0.0,71,0.00,,,0.00,12,WeatherTracker,2013-01-10 14:27:00,
2013-01-10 08:32:00,35.6,27.1,30.09,SE,132,1.0,0.0,71,0.00,,,0.00,16,WeatherTracker,2013-01-10 14:32:00,
2013-01-10 08:37:00,35.4,26.9,30.08,SE,131,3.0,0.0,71,0.00,,,0.00,18,WeatherTracker,2013-01-10 14:37:00,
2013-01-10 08:42:00,35.3,26.9,30.07,ESE,114,10.0,0.0,71,0.00,,,0.00,18,WeatherTracker,2013-01-10 14:42:00,
2013-01-10 08:47:00,35.2,26.8,30.07,SE,130,9.0,0.0,71,0.00,,,0.00,19,WeatherTracker,2013-01-10 14:47:00,
2013-01-10 08:52:00,35.1,27.0,30.06,ESE,118,7.0,0.0,72,0.00,,,0.00,25,WeatherTracker,2013-01-10 14:52:00,
2013-01-10 08:57:00,35.0,26.9,30.05,ESE,118,0.0,0.0,72,0.00,,,0.00,30,WeatherTracker,2013-01-10 14:57:00,
2013-01-10 09:02:00,35.0,27.2,30.05,SE,126,2.0,0.0,73,0.00,,,0.00,28,WeatherTracker,2013-01-10 15:02:00,
2013-01-10 09:07:00,35.0,27.2,30.05,SE,132,3.0,0.0,73,0.00,,,0.00,30,WeatherTracker,2013-01-10 15:07:00,
2013-01-10 09:12:00,35.1,27.7,30.05,SE,143,4.0,0.0,74,0.00,,,0.00,35,WeatherTracker,2013-01-10 15:12:00,
2013-01-10 09:17:00,35.2,27.8,30.05,ESE,123,9.0,0.0,74,0.00,,,0.00,39,WeatherTracker,2013-01-10 15:17:00,
2013-01-10 09:22:00,35.3,27.9,30.05,SE,126,5.0,0.0,74,0.00,,,0.00,54,WeatherTracker,2013-01-10 15:22:00,
2013-01-10 09:27:00,35.3,27.9,30.05,SE,139,11.0,0.0,74,0.00,,,0.00,69,WeatherTracker,2013-01-10 15:27:00,
2013-01-10 09:32:00,35.5,28.0,30.05,ESE,119,7.0,0.0,74,0.00,,,0.00,81,WeatherTracker,2013-01-10 15:32:00,
2013-01-10 09:37:00,35.7,28.2,30.05,SE,132,5.0,0.0,74,0.00,,,0.00,88,WeatherTracker,2013-01-10 15:37:00,
2013-01-10 09:42:00,35.7,28.6,30.04,SE,140,3.0,0.0,75,0.00,,,0.00,91,WeatherTracker,2013-01-10 15:42:00,
2013-01-10 09:47:00,35.8,28.7,30.04,SE,137,8.0,0.0,75,0.00,,,0.00,84,WeatherTracker,2013-01-10 15:47:00,
2013-01-10 09:53:00,35.7,28.9,30.03,ESE,105,6.0,0.0,76,0.00,,,0.00,88,WeatherTracker,2013-01-10 15:53:00,
2013-01-10 09:58:00,35.5,29.3,30.03,SE,137,5.0,0.0,78,0.00,,,0.00,90,WeatherTracker,2013-01-10 15:58:00,
2013-01-10 10:03:00,35.1,29.6,30.03,SSE,150,3.0,0.0,80,0.00,,,0.00,95,WeatherTracker,2013-01-10 16:03:00,
2013-01-10 10:08:00,34.4,29.8,30.04,SE,146,14.0,0.0,83,0.00,,,0.00,90,WeatherTracker,2013-01-10 16:08:00,
2013-01-10 10:13:00,34.1,30.1,30.03,SSE,152,8.0,0.0,85,0.00,,,0.00,79,WeatherTracker,2013-01-10 16:13:00,
2013-01-10 10:18:00,33.7,31.6,30.03,SSE,163,2.0,0.0,92,0.00,,,0.00,72,WeatherTracker,2013-01-10 16:18:00,
2013-01-10 10:23:00,33.5,30.3,30.03,SSE,150,4.0,0.0,88,0.00,,,0.00,76,WeatherTracker,2013-01-10 16:23:00,
2013-01-10 10:28:00,33.5,30.3,30.02,SE,146,3.0,0.0,88,0.00,,,0.00,77,WeatherTracker,2013-01-10 16:28:00,
2013-01-10 10:33:00,33.4,30.5,30.02,SSE,154,4.0,0.0,89,0.00,,,0.00,88,WeatherTracker,2013-01-10 16:33:00,
2013-01-10 10:38:00,33.4,30.5,30.02,SSE,148,2.0,0.0,89,0.00,,,0.00,84,WeatherTracker,2013-01-10 16:38:00,
2013-01-10 10:43:00,33.4,30.8,30.02,South,182,3.0,0.0,90,0.00,,,0.00,76,WeatherTracker,2013-01-10 16:43:00,
2013-01-10 10:48:00,33.4,30.8,30.02,South,182,4.0,0.0,90,0.00,,,0.00,90,WeatherTracker,2013-01-10 16:48:00,
2013-01-10 10:53:00,33.4,30.8,30.02,South,191,3.0,0.0,90,0.00,,,0.00,76,WeatherTracker,2013-01-10 16:53:00,
2013-01-10 10:58:00,33.3,31.0,30.02,SSE,165,1.0,0.0,91,0.00,,,0.00,69,WeatherTracker,2013-01-10 16:58:00,
2013-01-10 11:03:00,33.2,30.9,30.01,SSW,202,1.0,0.0,91,0.00,,,0.00,60,WeatherTracker,2013-01-10 17:03:00,
2013-01-10 11:08:00,33.2,30.9,30.01,SSW,196,3.0,0.0,91,0.00,,,0.00,70,WeatherTracker,2013-01-10 17:08:00,
2013-01-10 11:13:00,33.3,31.0,30.00,SSW,198,3.0,0.0,91,0.00,,,0.00,83,WeatherTracker,2013-01-10 17:13:00,
2013-01-10 11:18:00,33.3,31.0,29.99,SSE,160,3.0,0.0,91,0.00,,,0.00,127,WeatherTracker,2013-01-10 17:18:00,
2013-01-10 11:24:00,33.4,31.1,29.99,SSE,150,3.0,0.0,91,0.00,,,0.00,144,WeatherTracker,2013-01-10 17:24:00,
2013-01-10 11:29:00,33.5,31.2,29.98,SSE,153,2.0,0.0,91,0.00,,,0.00,137,WeatherTracker,2013-01-10 17:29:00,
2013-01-10 11:34:00,33.6,31.5,29.98,SSE,155,5.0,0.0,92,0.00,,,0.00,171,WeatherTracker,2013-01-10 17:34:00,
2013-01-10 11:39:00,33.7,31.6,29.97,SSE,153,1.0,0.0,92,0.00,,,0.00,188,WeatherTracker,2013-01-10 17:39:00,
2013-01-10 11:44:00,33.8,31.7,29.96,SSE,153,1.0,0.0,92,0.00,,,0.00,144,WeatherTracker,2013-01-10 17:44:00,
2013-01-10 11:49:00,33.8,31.7,29.95,SSE,157,2.0,0.0,92,0.00,,,0.00,146,WeatherTracker,2013-01-10 17:49:00,
2013-01-10 11:54:00,33.8,31.7,29.95,SSE,154,2.0,0.0,92,0.00,,,0.00,107,WeatherTracker,2013-01-10 17:54:00,
2013-01-10 11:59:00,33.8,31.7,29.95,SSE,157,3.0,0.0,92,0.00,,,0.00,102,WeatherTracker,2013-01-10 17:59:00,
2013-01-10 12:04:00,33.7,31.6,29.94,SSE,157,1.0,0.0,92,0.00,,,0.00,100,WeatherTracker,2013-01-10 18:04:00,
2013-01-10 12:09:00,33.7,31.6,29.94,SSE,158,0.0,0.0,92,0.00,,,0.00,102,WeatherTracker,2013-01-10 18:09:00,
2013-01-10 12:14:00,33.8,31.7,29.94,SSE,158,0.0,0.0,92,0.01,,,0.01,109,WeatherTracker,2013-01-10 18:14:00,
2013-01-10 12:19:00,33.7,31.6,29.94,SSE,158,0.0,0.0,92,0.02,,,0.02,107,WeatherTracker,2013-01-10 18:19:00,
2013-01-10 12:24:00,33.5,31.4,29.94,SSE,157,1.0,0.0,92,0.02,,,0.02,77,WeatherTracker,2013-01-10 18:24:00,
2013-01-10 12:29:00,33.5,31.4,29.93,SSE,157,0.0,0.0,92,0.02,,,0.02,84,WeatherTracker,2013-01-10 18:29:00,
2013-01-10 12:34:00,33.7,31.6,29.92,SSE,157,1.0,0.0,92,0.03,,,0.03,118,WeatherTracker,2013-01-10 18:34:00,
2013-01-10 12:39:00,33.8,32.0,29.92,SSE,158,1.0,0.0,93,0.03,,,0.03,88,WeatherTracker,2013-01-10 18:39:00,
2013-01-10 12:44:00,34.1,32.0,29.92,SSE,157,2.0,0.0,92,0.04,,,0.04,65,WeatherTracker,2013-01-10 18:44:00,
2013-01-10 12:49:00,34.0,32.2,29.91,SSE,158,5.0,0.0,93,0.04,,,0.04,70,WeatherTracker,2013-01-10 18:49:00,
2013-01-10 12:54:00,33.8,32.0,29.91,SSE,159,1.0,0.0,93,0.06,,,0.06,107,WeatherTracker,2013-01-10 18:54:00,
2013-01-10 13:00:00,34.1,32.3,29.91,SSE,158,4.0,0.0,93,0.06,,,0.06,167,WeatherTracker,2013-01-10 19:00:00,
2013-01-10 13:05:00,34.2,32.4,29.90,SSE,159,1.0,0.0,93,0.07,,,0.07,165,WeatherTracker,2013-01-10 19:05:00,
2013-01-10 13:10:00,34.4,32.6,29.90,SSE,159,4.0,0.0,93,0.07,,,0.07,146,WeatherTracker,2013-01-10 19:10:00,
2013-01-10 13:15:00,34.2,32.4,29.89,SSE,159,1.0,0.0,93,0.06,,,0.07,98,WeatherTracker,2013-01-10 19:15:00,
2013-01-10 13:20:00,34.4,32.6,29.89,SSE,157,0.0,0.0,93,0.06,,,0.08,79,WeatherTracker,2013-01-10 19:20:00,
2013-01-10 13:25:00,34.2,32.4,29.88,SSE,158,0.0,0.0,93,0.06,,,0.08,95,WeatherTracker,2013-01-10 19:25:00,
2013-01-10 13:30:00,34.3,32.5,29.88,SSE,159,3.0,0.0,93,0.06,,,0.08,104,WeatherTracker,2013-01-10 19:30:00,
2013-01-10 13:35:00,34.2,32.4,29.88,SSE,158,0.0,0.0,93,0.05,,,0.08,132,WeatherTracker,2013-01-10 19:35:00,
2013-01-10 13:40:00,34.4,32.6,29.88,SSE,159,0.0,0.0,93,0.06,,,0.09,111,WeatherTracker,2013-01-10 19:40:00,
2013-01-10 13:45:00,34.4,32.6,29.88,SSE,157,2.0,0.0,93,0.05,,,0.09,100,WeatherTracker,2013-01-10 19:45:00,
2013-01-10 13:50:00,34.1,32.3,29.87,SE,140,4.0,0.0,93,0.05,,,0.09,195,WeatherTracker,2013-01-10 19:50:00,
2013-01-10 13:55:00,34.4,32.6,29.86,SE,140,4.0,0.0,93,0.03,,,0.09,211,WeatherTracker,2013-01-10 19:55:00,
2013-01-10 14:00:00,34.2,32.4,29.86,SE,126,0.0,0.0,93,0.03,,,0.09,151,WeatherTracker,2013-01-10 20:00:00,
2013-01-10 14:05:00,34.4,32.6,29.85,SE,128,2.0,0.0,93,0.02,,,0.09,149,WeatherTracker,2013-01-10 20:05:00,
2013-01-10 14:10:00,34.4,32.6,29.84,SE,128,4.0,0.0,93,0.02,,,0.09,128,WeatherTracker,2013-01-10 20:10:00,
2013-01-10 14:15:00,34.4,32.6,29.85,SE,130,4.0,0.0,93,0.02,,,0.09,70,WeatherTracker,2013-01-10 20:15:00,
2013-01-10 14:20:00,34.2,32.4,29.85,SE,134,0.0,0.0,93,0.01,,,0.09,77,WeatherTracker,2013-01-10 20:20:00,
2013-01-10 14:25:00,34.0,32.2,29.83,SE,134,2.0,0.0,93,0.01,,,0.09,113,WeatherTracker,2013-01-10 20:25:00,
2013-01-10 14:30:00,34.1,32.3,29.84,SE,134,5.0,0.0,93,0.01,,,0.09,91,WeatherTracker,2013-01-10 20:30:00,
2013-01-10 14:35:00,33.9,32.1,29.84,SE,133,1.0,0.0,93,0.01,,,0.09,79,WeatherTracker,2013-01-10 20:35:00,
2013-01-10 14:40:00,33.9,32.1,29.83,SE,133,4.0,0.0,93,0.00,,,0.09,88,WeatherTracker,2013-01-10 20:40:00,
2013-01-10 14:46:00,33.9,32.1,29.83,SE,132,0.0,0.0,93,0.00,,,0.09,76,WeatherTracker,2013-01-10 20:46:00,
2013-01-10 14:51:00,33.9,32.1,29.83,SE,132,0.0,0.0,93,0.00,,,0.09,70,WeatherTracker,2013-01-10 20:51:00,
2013-01-10 14:56:00,33.9,32.1,29.83,SE,132,2.0,0.0,93,0.00,,,0.09,72,WeatherTracker,2013-01-10 20:56:00,
2013-01-10 15:01:00,33.9,32.1,29.82,SE,133,3.0,0.0,93,0.00,,,0.09,86,WeatherTracker,2013-01-10 21:01:00,
2013-01-10 15:06:00,33.9,32.1,29.81,SE,136,4.0,0.0,93,0.00,,,0.09,84,WeatherTracker,2013-01-10 21:06:00,
2013-01-10 15:11:00,33.8,32.0,29.81,SE,134,4.0,0.0,93,0.00,,,0.09,81,WeatherTracker,2013-01-10 21:11:00,
2013-01-10 15:16:00,33.7,32.2,29.80,SE,134,4.0,0.0,94,0.00,,,0.09,72,WeatherTracker,2013-01-10 21:16:00,
2013-01-10 15:21:00,33.6,32.1,29.80,SE,133,5.0,0.0,94,0.00,,,0.09,60,WeatherTracker,2013-01-10 21:21:00,
2013-01-10 15:26:00,33.6,32.1,29.80,SE,133,5.0,0.0,94,0.00,,,0.09,53,WeatherTracker,2013-01-10 21:26:00,
2013-01-10 15:31:00,33.6,32.1,29.80,SE,136,2.0,0.0,94,0.00,,,0.09,53,WeatherTracker,2013-01-10 21:31:00,
2013-01-10 15:36:00,33.5,32.0,29.80,SE,136,3.0,0.0,94,0.00,,,0.09,56,WeatherTracker,2013-01-10 21:36:00,
2013-01-10 15:41:00,33.6,32.1,29.80,SE,136,5.0,0.0,94,0.00,,,0.09,47,WeatherTracker,2013-01-10 21:41:00,
2013-01-10 15:46:00,33.9,32.4,29.80,SE,137,4.0,0.0,94,0.00,,,0.09,47,WeatherTracker,2013-01-10 21:46:00,
2013-01-10 15:51:00,33.8,32.3,29.81,SE,138,0.0,0.0,94,0.00,,,0.09,42,WeatherTracker,2013-01-10 21:51:00,
2013-01-10 15:56:00,33.9,32.4,29.81,SE,138,4.0,0.0,94,0.00,,,0.09,53,WeatherTracker,2013-01-10 21:56:00,
2013-01-10 16:01:00,33.6,32.1,29.81,SE,142,2.0,0.0,94,0.00,,,0.09,39,WeatherTracker,2013-01-10 22:01:00,
2013-01-10 16:06:00,33.6,32.1,29.81,SE,145,3.0,0.0,94,0.00,,,0.09,39,WeatherTracker,2013-01-10 22:06:00,
2013-01-10 16:11:00,33.4,31.9,29.81,SE,137,2.0,0.0,94,0.00,,,0.09,33,WeatherTracker,2013-01-10 22:11:00,
2013-01-10 16:16:00,33.4,31.9,29.80,SE,134,1.0,0.0,94,0.00,,,0.09,23,WeatherTracker,2013-01-10 22:16:00,
2013-01-10 16:21:00,33.3,31.8,29.80,SE,132,0.0,0.0,94,0.00,,,0.09,18,WeatherTracker,2013-01-10 22:21:00,
2013-01-10 16:26:00,33.3,31.8,29.81,SE,144,4.0,0.0,94,0.00,,,0.09,12,WeatherTracker,2013-01-10 22:26:00,
2013-01-10 16:31:00,33.3,31.8,29.81,SSE,159,1.0,0.0,94,0.00,,,0.09,9,WeatherTracker,2013-01-10 22:31:00,
2013-01-10 16:36:00,33.4,31.9,29.80,SSE,157,1.0,0.0,94,0.00,,,0.09,9,WeatherTracker,2013-01-10 22:36:00,
2013-01-10 16:42:00,33.5,32.0,29.81,SSE,150,4.0,0.0,94,0.00,,,0.09,7,WeatherTracker,2013-01-10 22:42:00,
2013-01-10 16:47:00,33.4,31.9,29.81,South,187,2.0,0.0,94,0.00,,,0.09,5,WeatherTracker,2013-01-10 22:47:00,
2013-01-10 16:52:00,33.3,31.8,29.81,SE,146,3.0,0.0,94,0.00,,,0.09,5,WeatherTracker,2013-01-10 22:52:00,
2013-01-10 16:57:00,33.4,31.9,29.80,SE,146,5.0,0.0,94,0.00,,,0.09,5,WeatherTracker,2013-01-10 22:57:00,
2013-01-10 17:02:00,33.4,31.9,29.80,South,169,0.0,0.0,94,0.00,,,0.09,0,WeatherTracker,2013-01-10 23:02:00,
2013-01-10 17:07:00,33.3,31.8,29.80,SSE,162,0.0,0.0,94,0.00,,,0.09,0,WeatherTracker,2013-01-10 23:07:00,
2013-01-10 17:12:00,33.4,31.9,29.80,SSE,159,2.0,0.0,94,0.00,,,0.09,0,WeatherTracker,2013-01-10 23:12:00,
2013-01-10 17:17:00,33.3,31.8,29.79,SSE,159,3.0,0.0,94,0.00,,,0.09,0,WeatherTracker,2013-01-10 23:17:00,
2013-01-10 17:22:00,33.3,31.8,29.78,SSE,149,3.0,0.0,94,0.00,,,0.09,0,WeatherTracker,2013-01-10 23:22:00,
2013-01-10 17:27:00,33.4,31.9,29.78,SSE,161,2.0,0.0,94,0.00,,,0.09,0,WeatherTracker,2013-01-10 23:27:00,
2013-01-10 17:32:00,33.4,31.9,29.78,South,184,0.0,0.0,94,0.00,,,0.09,0,WeatherTracker,2013-01-10 23:32:00,
2013-01-10 17:37:00,33.6,32.1,29.78,South,182,0.0,0.0,94,0.00,,,0.09,0,WeatherTracker,2013-01-10 23:37:00,
2013-01-10 17:42:00,33.4,31.9,29.78,South,175,0.0,0.0,94,0.00,,,0.09,0,WeatherTracker,2013-01-10 23:42:00,
2013-01-10 17:47:00,33.4,31.9,29.78,South,175,0.0,0.0,94,0.00,,,0.09,0,WeatherTracker,2013-01-10 23:47:00,
2013-01-10 17:52:00,33.4,31.9,29.78,South,175,3.0,0.0,94,0.00,,,0.09,0,WeatherTracker,2013-01-10 23:52:00,
2013-01-10 17:57:00,33.4,31.9,29.78,South,175,0.0,0.0,94,0.00,,,0.09,0,WeatherTracker,2013-01-10 23:57:00,
2013-01-10 18:02:00,33.6,32.1,29.78,South,176,4.0,0.0,94,0.00,,,0.09,0,WeatherTracker,2013-01-11 00:02:00,
2013-01-10 18:07:00,33.6,32.1,29.78,South,176,2.0,0.0,94,0.00,,,0.09,0,WeatherTracker,2013-01-11 00:07:00,
2013-01-10 18:12:00,33.7,32.2,29.78,South,176,0.0,0.0,94,0.00,,,0.09,0,WeatherTracker,2013-01-11 00:12:00,
2013-01-10 18:17:00,33.7,32.2,29.78,South,177,3.0,0.0,94,0.00,,,0.09,0,WeatherTracker,2013-01-11 00:17:00,
2013-01-10 18:23:00,33.7,32.2,29.78,South,181,2.0,0.0,94,0.00,,,0.09,0,WeatherTracker,2013-01-11 00:23:00,
2013-01-10 18:28:00,33.8,32.3,29.78,South,181,3.0,0.0,94,0.00,,,0.09,0,WeatherTracker,2013-01-11 00:28:00,
2013-01-10 18:33:00,33.7,32.2,29.77,South,180,4.0,0.0,94,0.00,,,0.09,0,WeatherTracker,2013-01-11 00:33:00,
2013-01-10 18:38:00,33.8,32.3,29.77,South,181,2.0,0.0,94,0.00,,,0.09,0,WeatherTracker,2013-01-11 00:38:00,
2013-01-10 18:43:00,33.7,32.2,29.77,South,180,4.0,0.0,94,0.00,,,0.09,0,WeatherTracker,2013-01-11 00:43:00,
2013-01-10 18:48:00,33.9,32.4,29.76,South,180,3.0,0.0,94,0.00,,,0.09,0,WeatherTracker,2013-01-11 00:48:00,
2013-01-10 18:53:00,33.7,32.2,29.77,South,182,0.0,0.0,94,0.00,,,0.09,0,WeatherTracker,2013-01-11 00:53:00,
2013-01-10 18:58:00,33.7,32.2,29.77,South,183,2.0,0.0,94,0.00,,,0.09,0,WeatherTracker,2013-01-11 00:58:00,
2013-01-10 19:03:00,33.7,32.4,29.76,South,183,1.0,0.0,95,0.00,,,0.09,0,WeatherTracker,2013-01-11 01:03:00,
2013-01-10 19:08:00,33.7,32.4,29.76,South,183,4.0,0.0,95,0.00,,,0.09,0,WeatherTracker,2013-01-11 01:08:00,
2013-01-10 19:13:00,33.6,32.3,29.76,South,183,3.0,0.0,95,0.00,,,0.09,0,WeatherTracker,2013-01-11 01:13:00,
2013-01-10 19:18:00,33.7,32.4,29.77,South,184,3.0,0.0,95,0.00,,,0.09,0,WeatherTracker,2013-01-11 01:18:00,
2013-01-10 19:23:00,33.7,32.4,29.77,South,184,2.0,0.0,95,0.00,,,0.09,0,WeatherTracker,2013-01-11 01:23:00,
2013-01-10 19:28:00,33.7,32.4,29.76,SSE,164,3.0,0.0,95,0.00,,,0.09,0,WeatherTracker,2013-01-11 01:28:00,
2013-01-10 19:33:00,33.6,32.3,29.75,SE,139,10.0,0.0,95,0.00,,,0.09,0,WeatherTracker,2013-01-11 01:33:00,
2013-01-10 19:38:00,33.5,32.2,29.74,SE,131,5.0,0.0,95,0.00,,,0.09,0,WeatherTracker,2013-01-11 01:38:00,
2013-01-10 19:43:00,33.4,31.9,29.74,SSE,148,4.0,0.0,94,0.00,,,0.09,0,WeatherTracker,2013-01-11 01:43:00,
2013-01-10 19:48:00,33.7,32.4,29.75,South,179,6.0,0.0,95,0.00,,,0.09,0,WeatherTracker,2013-01-11 01:48:00,
2013-01-10 19:54:00,33.7,32.4,29.75,SSE,150,4.0,0.0,95,0.00,,,0.09,0,WeatherTracker,2013-01-11 01:54:00,
2013-01-10 19:59:00,33.8,32.5,29.74,SE,144,7.0,0.0,95,0.00,,,0.09,0,WeatherTracker,2013-01-11 01:59:00,
2013-01-10 20:04:00,33.8,32.5,29.73,SSE,152,5.0,0.0,95,0.00,,,0.09,0,WeatherTracker,2013-01-11 02:04:00,
2013-01-10 20:09:00,33.9,32.6,29.75,SSE,167,4.0,0.0,95,0.00,,,0.09,0,WeatherTracker,2013-01-11 02:09:00,
2013-01-10 20:14:00,33.9,32.6,29.74,SSE,160,3.0,0.0,95,0.00,,,0.09,0,WeatherTracker,2013-01-11 02:14:00,
2013-01-10 20:19:00,33.9,32.6,29.75,South,173,5.0,0.0,95,0.00,,,0.09,0,WeatherTracker,2013-01-11 02:19:00,
2013-01-10 20:24:00,33.9,32.6,29.74,South,173,4.0,0.0,95,0.00,,,0.09,0,WeatherTracker,2013-01-11 02:24:00,
2013-01-10 20:29:00,33.9,32.6,29.73,SSE,147,2.0,0.0,95,0.00,,,0.09,0,WeatherTracker,2013-01-11 02:29:00,
2013-01-10 20:34:00,33.9,32.6,29.73,SSE,157,2.0,0.0,95,0.00,,,0.09,0,WeatherTracker,2013-01-11 02:34:00,
2013-01-10 20:39:00,33.9,32.6,29.73,SE,137,3.0,0.0,95,0.00,,,0.09,0,WeatherTracker,2013-01-11 02:39:00,
2013-01-10 20:44:00,33.9,32.6,29.73,South,186,4.0,0.0,95,0.00,,,0.09,0,WeatherTracker,2013-01-11 02:44:00,
2013-01-10 20:49:00,33.9,32.6,29.73,South,181,1.0,0.0,95,0.00,,,0.09,0,WeatherTracker,2013-01-11 02:49:00,
2013-01-10 20:54:00,33.9,32.6,29.72,South,173,3.0,0.0,95,0.00,,,0.09,0,WeatherTracker,2013-01-11 02:54:00,
2013-01-10 20:59:00,33.9,32.6,29.72,South,175,3.0,0.0,95,0.00,,,0.09,0,WeatherTracker,2013-01-11 02:59:00,
2013-01-10 21:04:00,34.0,32.7,29.72,South,178,2.0,0.0,95,0.00,,,0.09,0,WeatherTracker,2013-01-11 03:04:00,
2013-01-10 21:09:00,34.0,32.7,29.72,SSW,192,3.0,0.0,95,0.00,,,0.09,0,WeatherTracker,2013-01-11 03:09:00,
2013-01-10 21:14:00,34.0,32.7,29.72,South,182,2.0,0.0,95,0.00,,,0.09,0,WeatherTracker,2013-01-11 03:14:00,
2013-01-10 21:20:00,34.2,32.9,29.72,South,178,1.0,0.0,95,0.00,,,0.09,0,WeatherTracker,2013-01-11 03:20:00,
2013-01-10 21:25:00,34.1,32.8,29.71,SSE,168,0.0,0.0,95,0.00,,,0.09,0,WeatherTracker,2013-01-11 03:25:00,
2013-01-10 21:30:00,34.1,32.8,29.71,South,178,2.0,0.0,95,0.00,,,0.09,0,WeatherTracker,2013-01-11 03:30:00,
2013-01-10 21:35:00,34.3,33.0,29.71,SSE,166,2.0,0.0,95,0.00,,,0.09,0,WeatherTracker,2013-01-11 03:35:00,
2013-01-10 21:40:00,34.4,33.1,29.71,SSW,194,3.0,0.0,95,0.00,,,0.09,0,WeatherTracker,2013-01-11 03:40:00,
2013-01-10 21:45:00,34.3,33.0,29.71,SSW,196,2.0,0.0,95,0.00,,,0.09,0,WeatherTracker,2013-01-11 03:45:00,
2013-01-10 21:50:00,34.3,33.0,29.70,South,188,3.0,0.0,95,0.00,,,0.09,0,WeatherTracker,2013-01-11 03:50:00,
2013-01-10 21:55:00,34.2,32.9,29.70,SW,232,4.0,0.0,95,0.00,,,0.09,0,WeatherTracker,2013-01-11 03:55:00,
2013-01-10 22:00:00,34.1,32.8,29.70,SW,229,6.0,0.0,95,0.00,,,0.09,0,WeatherTracker,2013-01-11 04:00:00,
2013-01-10 22:05:00,34.1,32.8,29.70,SW,218,2.0,0.0,95,0.00,,,0.09,0,WeatherTracker,2013-01-11 04:05:00,
2013-01-10 22:10:00,34.1,32.8,29.69,SW,217,3.0,0.0,95,0.00,,,0.09,0,WeatherTracker,2013-01-11 04:10:00,
2013-01-10 22:15:00,34.1,32.8,29.69,SW,215,3.0,0.0,95,0.00,,,0.09,0,WeatherTracker,2013-01-11 04:15:00,
2013-01-10 22:20:00,34.1,32.8,29.69,SW,215,4.0,0.0,95,0.00,,,0.09,0,WeatherTracker,2013-01-11 04:20:00,
2013-01-10 22:25:00,34.1,32.8,29.69,SW,215,4.0,0.0,95,0.00,,,0.09,0,WeatherTracker,2013-01-11 04:25:00,
2013-01-10 22:31:00,34.1,32.8,29.69,SW,215,2.0,0.0,95,0.00,,,0.09,0,WeatherTracker,2013-01-11 04:31:00,
2013-01-10 22:36:00,34.2,32.9,29.69,SW,215,1.0,0.0,95,0.00,,,0.09,0,WeatherTracker,2013-01-11 04:36:00,
2013-01-10 22:41:00,34.3,33.0,29.68,SW,215,0.0,0.0,95,0.00,,,0.09,0,WeatherTracker,2013-01-11 04:41:00,
2013-01-10 22:46:00,34.3,33.0,29.68,SW,215,3.0,0.0,95,0.00,,,0.09,0,WeatherTracker,2013-01-11 04:46:00,
2013-01-10 22:51:00,34.4,33.1,29.68,SW,215,0.0,0.0,95,0.00,,,0.09,0,WeatherTracker,2013-01-11 04:51:00,
2013-01-10 22:56:00,34.4,33.1,29.68,SW,215,0.0,0.0,95,0.00,,,0.09,0,WeatherTracker,2013-01-11 04:56:00,
2013-01-10 23:00:00,34.4,33.1,29.68,SSW,213,2.0,0.0,95,0.00,,,0.09,0,WeatherTracker,2013-01-11 05:00:00,
2013-01-10 23:01:00,34.4,33.1,29.68,SSW,213,1.0,0.0,95,0.00,,,0.09,0,WeatherTracker,2013-01-11 05:01:00,
2013-01-10 23:02:00,34.4,33.1,29.67,SSW,213,0.0,0.0,95,0.00,,,0.09,0,WeatherTracker,2013-01-11 05:02:00,
2013-01-10 23:07:00,34.3,33.0,29.67,SSW,213,2.0,0.0,95,0.00,,,0.09,0,WeatherTracker,2013-01-11 05:07:00,
2013-01-10 23:12:00,34.1,32.8,29.67,SSW,195,2.0,0.0,95,0.00,,,0.09,0,WeatherTracker,2013-01-11 05:12:00,
2013-01-10 23:17:00,34.0,32.7,29.67,SSW,194,0.0,0.0,95,0.00,,,0.09,0,WeatherTracker,2013-01-11 05:17:00,
2013-01-10 23:22:00,34.1,32.8,29.66,SSW,194,3.0,0.0,95,0.00,,,0.09,0,WeatherTracker,2013-01-11 05:22:00,
2013-01-10 23:28:00,34.4,33.1,29.66,SSW,192,0.0,0.0,95,0.00,,,0.09,0,WeatherTracker,2013-01-11 05:28:00,
2013-01-10 23:33:00,34.3,33.0,29.66,SSW,192,2.0,0.0,95,0.01,,,0.10,0,WeatherTracker,2013-01-11 05:33:00,
2013-01-10 23:38:00,34.3,33.0,29.66,South,188,2.0,0.0,95,0.01,,,0.10,0,WeatherTracker,2013-01-11 05:38:00,
2013-01-10 23:43:00,34.4,33.1,29.65,South,188,0.0,0.0,95,0.01,,,0.10,0,WeatherTracker,2013-01-11 05:43:00,
2013-01-10 23:48:00,34.4,33.1,29.66,South,183,4.0,0.0,95,0.01,,,0.10,0,WeatherTracker,2013-01-11 05:48:00,
2013-01-10 23:53:00,34.4,33.1,29.65,South,183,3.0,0.0,95,0.01,,,0.10,0,WeatherTracker,2013-01-11 05:53:00,
2013-01-10 23:58:00,34.4,33.1,29.65,South,184,5.0,0.0,95,0.01,,,0.10,0,WeatherTracker,2013-01-11 05:58:00,